createdAt,value
2018-06-19T05:26:08.330Z,4.37
2018-06-19T05:55:52.336Z,4.17
2018-06-19T06:02:07.108Z,2.60
2018-06-19T06:04:38.412Z,3.03
2018-06-19T06:07:11.599Z,3.10
2018-06-19T06:09:42.675Z,3.53
2018-06-19T06:12:13.457Z,2.97
2018-06-19T06:14:44.053Z,3.37
2018-06-19T06:17:14.239Z,2.70
2018-06-19T06:19:46.440Z,3.00
2018-06-19T06:22:16.792Z,2.90
2018-06-19T06:24:47.658Z,3.27
2018-06-19T06:27:18.152Z,2.80
2018-06-19T06:29:50.181Z,2.80
2018-06-19T06:32:21.149Z,2.60
2018-06-19T06:34:51.066Z,2.80
2018-06-19T06:37:20.745Z,2.50
2018-06-19T06:39:51.728Z,2.40
2018-06-19T06:42:24.123Z,2.50
2018-06-19T06:44:54.253Z,1.90
2018-06-19T06:47:24.758Z,2.60
2018-06-19T06:49:55.882Z,2.70
2018-06-19T06:52:26.692Z,2.20
2018-06-19T06:54:57.531Z,2.20
2018-06-19T06:57:27.394Z,2.00
2018-06-19T06:59:57.867Z,2.07
2018-06-19T07:02:29.114Z,1.90
2018-06-19T07:04:59.523Z,2.47
2018-06-19T07:07:30.544Z,2.50
2018-06-19T07:10:01.576Z,2.77
2018-06-19T07:12:35.232Z,2.43
2018-06-19T07:15:06.011Z,2.50
2018-06-19T07:17:37.024Z,2.17
2018-06-19T07:20:08.170Z,1.80
2018-06-19T07:22:41.719Z,2.17
2018-06-19T07:25:12.679Z,1.80
2018-06-19T07:27:42.340Z,2.07
2018-06-19T07:30:15.086Z,2.27
2018-06-19T07:32:46.057Z,2.10
2018-06-19T07:35:17.785Z,1.50
2018-06-19T07:37:48.358Z,1.47
2018-06-19T07:40:19.151Z,1.20
2018-06-19T07:42:49.974Z,1.90
2018-06-19T07:45:21.869Z,1.93
2018-06-19T07:47:52.985Z,1.60
2018-06-19T07:50:23.461Z,1.40
2018-06-19T07:52:54.739Z,1.97
2018-06-19T07:55:25.418Z,1.73
2018-06-19T07:57:56.377Z,1.67
2018-06-19T08:00:28.107Z,1.37
2018-06-19T08:03:02.424Z,2.20
2018-06-19T08:05:32.755Z,1.60
2018-06-19T08:08:03.331Z,2.33
2018-06-19T08:10:35.381Z,2.00
2018-06-19T08:13:05.256Z,1.47
2018-06-19T08:15:36.401Z,1.97
2018-06-19T08:18:05.947Z,1.60
2018-06-19T08:20:36.680Z,1.40
2018-06-19T08:23:07.228Z,1.57
2018-06-19T08:25:37.878Z,1.47
2018-06-19T08:28:11.629Z,1.20
2018-06-19T08:30:42.909Z,1.40
2018-06-19T08:33:13.868Z,1.33
2018-06-19T08:35:46.207Z,1.83
2018-06-19T08:38:16.528Z,1.67
2018-06-19T08:40:47.511Z,1.93
2018-06-19T08:43:18.189Z,1.47
2018-06-19T08:45:49.388Z,1.43
2018-06-19T08:48:19.713Z,1.40
2018-06-19T08:50:51.683Z,1.40
2018-06-19T08:53:23.240Z,1.40
2018-06-19T08:55:56.061Z,1.93
2018-06-19T08:58:34.093Z,1.40
2018-06-19T09:01:07.896Z,1.67
2018-06-19T09:03:40.604Z,1.20
2018-06-19T09:06:16.199Z,1.77
2018-06-19T09:08:47.195Z,1.30
2018-06-19T09:11:17.569Z,1.43
2018-06-19T09:13:48.259Z,1.10
2018-06-19T09:16:18.900Z,1.30
2018-06-19T09:18:50.155Z,1.43
2018-06-19T09:21:19.851Z,1.40
2018-06-19T09:23:52.874Z,1.20
2018-06-19T09:26:23.639Z,1.20
2018-06-19T09:28:54.315Z,1.80
2018-06-19T09:31:26.221Z,1.50
2018-06-19T09:33:56.763Z,1.30
2018-06-19T09:36:28.147Z,2.10
2018-06-19T09:38:59.152Z,1.53
2018-06-19T09:41:31.271Z,1.67
2018-06-19T09:44:01.408Z,1.60
2018-06-19T09:46:33.936Z,1.87
2018-06-19T09:49:08.810Z,1.80
2018-06-19T09:51:42.736Z,3.90
2018-06-19T09:54:16.037Z,1.50
2018-06-19T09:56:46.702Z,1.70
2018-06-19T09:59:20.228Z,1.50
2018-06-19T10:01:51.027Z,1.50
2018-06-19T10:04:21.898Z,1.40
2018-06-19T10:06:52.979Z,1.73
2018-06-19T10:09:27.681Z,1.33
2018-06-19T10:12:02.358Z,1.33
2018-06-19T10:14:33.356Z,1.20
2018-06-19T10:17:05.379Z,1.83
2018-06-19T10:19:36.361Z,1.67
2018-06-19T10:22:08.654Z,1.40
2018-06-19T10:24:39.642Z,4.27
2018-06-19T10:27:10.703Z,1.83
2018-06-19T10:29:44.305Z,1.37
2018-06-19T10:32:15.698Z,1.27
2018-06-19T10:34:45.939Z,1.47
2018-06-19T10:37:16.764Z,1.70
2018-06-19T10:39:53.964Z,1.40
2018-06-19T10:42:24.868Z,1.13
2018-06-19T10:44:56.343Z,1.10
2018-06-19T10:47:27.580Z,1.50
2018-06-19T10:49:57.985Z,1.20
2018-06-19T10:52:29.446Z,1.40
2018-06-19T10:55:00.428Z,1.63
2018-06-19T10:57:31.404Z,1.50
2018-06-19T11:00:03.580Z,2.07
2018-06-19T11:02:36.182Z,1.23
2018-06-19T11:05:09.047Z,1.40
2018-06-19T11:07:41.065Z,1.80
2018-06-19T11:10:12.706Z,1.50
2018-06-19T11:12:43.592Z,1.43
2018-06-19T11:15:15.580Z,1.30
2018-06-19T11:17:49.701Z,1.70
2018-06-19T11:20:26.746Z,1.53
2018-06-19T11:23:13.205Z,1.50
2018-06-19T11:25:49.797Z,1.50
2018-06-19T11:28:32.818Z,1.60
2018-06-19T11:31:05.279Z,1.40
2018-06-19T11:33:45.273Z,1.60
2018-06-19T11:39:12.835Z,1.40
2018-06-19T11:44:27.797Z,1.80
2018-06-19T11:52:42.665Z,1.20
2018-06-19T12:00:41.235Z,1.80
2018-06-19T12:03:19.434Z,1.83
2018-06-19T12:05:59.495Z,1.30
2018-06-19T12:08:58.607Z,1.10
2018-06-19T12:11:38.452Z,1.43
2018-06-19T12:14:26.753Z,1.83
2018-06-19T12:17:23.012Z,1.37
2018-06-19T12:19:58.314Z,1.00
2018-06-19T12:22:46.492Z,1.60
2018-06-19T12:25:26.767Z,1.40
2018-06-19T12:28:03.571Z,1.40
2018-06-19T12:30:59.316Z,1.50
2018-06-19T12:33:42.312Z,1.30
2018-06-19T12:36:19.430Z,1.63
2018-06-19T12:38:50.567Z,1.20
2018-06-19T12:50:06.453Z,1.37
2018-06-19T12:52:48.426Z,1.53
2018-06-19T12:55:35.446Z,1.77
2018-06-19T12:58:25.681Z,1.80
2018-06-19T13:01:20.437Z,1.57
2018-06-19T13:04:11.371Z,1.40
2018-06-19T13:10:00.984Z,1.30
2018-06-19T13:15:22.933Z,1.40
2018-06-19T13:18:04.448Z,2.07
2018-06-19T13:20:46.836Z,1.30
2018-06-19T13:23:26.453Z,1.50
2018-06-19T13:26:03.852Z,1.90
2018-06-19T13:33:06.256Z,2.27
2018-06-19T13:35:48.064Z,1.67
2018-06-19T13:44:19.904Z,1.20
2018-06-19T13:47:03.915Z,2.07
2018-06-19T13:49:42.760Z,1.70
2018-06-19T13:52:22.511Z,1.47
2018-06-19T13:55:04.231Z,1.70
2018-06-19T13:57:48.956Z,1.47
2018-06-19T14:00:25.008Z,1.33
2018-06-19T14:02:58.444Z,1.20
2018-06-19T14:05:29.320Z,1.73
2018-06-19T14:08:11.735Z,1.60
2018-06-19T14:10:55.559Z,2.10
2018-06-19T14:16:27.113Z,1.67
2018-06-19T14:19:13.822Z,1.77
2018-06-19T14:21:44.076Z,1.43
2018-06-19T14:24:18.953Z,1.20
2018-06-19T14:30:23.078Z,1.83
2018-06-19T14:32:59.582Z,1.50
2018-06-19T14:35:42.372Z,2.07
2018-06-19T14:38:19.435Z,1.60
2018-06-19T14:40:53.163Z,1.17
2018-06-19T14:43:53.580Z,1.70
2018-06-19T14:46:29.076Z,1.87
2018-06-19T14:49:04.083Z,1.43
2018-06-19T14:51:38.782Z,1.83
2018-06-19T14:54:17.672Z,2.00
2018-06-19T14:56:57.116Z,1.40
2018-06-19T14:59:46.408Z,1.60
2018-06-19T15:02:20.364Z,1.73
2018-06-19T15:05:16.907Z,1.20
2018-06-19T15:11:32.931Z,1.67
2018-06-19T15:16:59.552Z,1.73
2018-06-19T15:20:03.503Z,2.00
2018-06-19T15:37:03.667Z,1.50
2018-06-19T16:01:25.786Z,2.00
2018-06-19T16:16:53.999Z,2.03
2018-06-19T16:28:48.249Z,2.17
2018-06-19T16:38:33.775Z,2.43
2018-06-19T16:44:38.824Z,2.33
2018-06-19T16:47:30.261Z,2.60
2018-06-19T16:50:04.976Z,2.20
2018-06-19T16:52:36.311Z,1.50
2018-06-19T16:55:13.409Z,2.30
2018-06-19T16:57:46.378Z,2.03
2018-06-19T17:00:19.203Z,2.60
2018-06-19T17:02:52.708Z,3.43
2018-06-19T17:05:26.907Z,2.30
2018-06-19T17:07:59.019Z,1.90
2018-06-19T17:10:32.852Z,2.43
2018-06-19T17:13:07.477Z,2.40
2018-06-19T17:15:42.363Z,2.30
2018-06-19T17:18:19.196Z,2.30
2018-06-19T17:20:52.899Z,2.23
2018-06-19T17:23:34.094Z,2.43
2018-06-19T17:29:08.107Z,2.23
2018-06-19T17:32:03.926Z,2.40
2018-06-19T18:08:04.501Z,2.40
2018-06-19T18:11:01.548Z,2.70
2018-06-19T18:20:34.641Z,2.80
2018-06-19T18:26:38.691Z,2.63
2018-06-19T18:44:14.377Z,2.50
2018-06-19T18:53:30.940Z,2.93
2018-06-19T18:56:20.682Z,3.43
2018-06-19T18:58:58.055Z,2.80
2018-06-19T19:01:50.953Z,3.60
2018-06-19T19:05:08.431Z,3.10
2018-06-19T19:07:42.337Z,3.90
2018-06-19T19:13:41.983Z,2.73
2018-06-19T19:16:18.058Z,3.63
2018-06-19T19:18:53.446Z,3.50
2018-06-19T19:25:12.860Z,2.80
2018-06-19T19:28:18.005Z,2.97
2018-06-19T19:30:52.352Z,4.13
2018-06-19T19:33:28.447Z,4.80
2018-06-19T19:36:13.225Z,3.90
2018-06-19T19:41:36.712Z,2.90
2018-06-19T19:49:12.887Z,2.50
2018-06-19T19:52:03.235Z,3.47
2018-06-19T19:54:39.872Z,3.43
2018-06-19T20:00:20.647Z,4.10
2018-06-19T20:11:13.106Z,4.23
2018-06-19T20:13:51.731Z,3.60
2018-06-19T20:16:34.653Z,3.63
2018-06-19T20:19:11.281Z,3.70
2018-06-19T20:21:47.021Z,3.30
2018-06-19T20:24:26.392Z,4.00
2018-06-19T20:34:15.802Z,3.60
2018-06-19T20:36:46.781Z,3.20
2018-06-19T20:39:29.955Z,3.37
2018-06-19T20:42:13.827Z,4.27
2018-06-19T20:44:53.388Z,3.47
2018-06-19T20:47:24.469Z,4.47
2018-06-19T20:49:59.555Z,3.90
2018-06-19T20:52:33.037Z,4.20
2018-06-19T20:55:05.922Z,3.50
2018-06-19T20:57:37.867Z,3.70
2018-06-19T21:00:16.506Z,3.47
2018-06-19T21:05:45.805Z,3.30
2018-06-19T21:08:18.449Z,4.77
2018-06-19T21:10:53.145Z,3.90
2018-06-19T21:13:32.496Z,4.03
2018-06-19T21:16:14.174Z,4.17
2018-06-19T21:18:55.184Z,3.50
2018-06-19T21:24:21.739Z,3.40
2018-06-19T21:29:56.679Z,4.00
2018-06-19T21:32:38.873Z,4.07
2018-06-19T21:38:38.747Z,4.10
